createdAt,value
2022-12-24T00:00:33.773Z,4.90
2022-12-24T00:03:21.928Z,4.90
2022-12-24T00:05:53.819Z,4.93
2022-12-24T00:08:25.691Z,4.97
2022-12-24T00:10:57.347Z,5.01
2022-12-24T00:13:29.171Z,5.02
2022-12-24T00:16:01.027Z,5.00
2022-12-24T00:18:32.934Z,4.96
2022-12-24T00:21:06.744Z,4.91
2022-12-24T00:23:38.705Z,4.86
2022-12-24T00:26:11.597Z,4.84
2022-12-24T00:28:43.654Z,4.78
2022-12-24T00:31:17.958Z,4.73
2022-12-24T00:33:50.943Z,4.68
2022-12-24T00:36:24.152Z,4.66
2022-12-24T00:38:57.015Z,4.68
2022-12-24T00:41:29.527Z,4.71
2022-12-24T00:44:06.180Z,4.74
2022-12-24T00:46:40.010Z,4.78
2022-12-24T00:49:13.642Z,4.84
2022-12-24T00:51:45.618Z,4.86
2022-12-24T00:54:17.439Z,4.88
2022-12-24T00:56:49.172Z,4.90
2022-12-24T00:59:20.900Z,4.95
2022-12-24T01:01:52.835Z,4.99
2022-12-24T01:04:42.940Z,4.98
2022-12-24T01:07:14.666Z,4.91
2022-12-24T01:09:46.347Z,4.86
2022-12-24T01:12:18.297Z,4.78
2022-12-24T01:14:50.347Z,4.74
2022-12-24T01:17:25.493Z,4.72
2022-12-24T01:19:57.261Z,4.76
2022-12-24T01:22:29.735Z,4.82
2022-12-24T01:25:01.516Z,4.87
2022-12-24T01:27:33.659Z,4.94
2022-12-24T01:30:05.875Z,4.97
2022-12-24T01:32:37.803Z,4.98
2022-12-24T01:35:11.266Z,4.97
2022-12-24T01:37:44.803Z,4.93
2022-12-24T01:40:34.414Z,4.87
2022-12-24T01:43:29.479Z,4.80
2022-12-24T01:46:03.489Z,4.66
2022-12-24T01:48:40.003Z,4.56
2022-12-24T01:51:20.322Z,4.52
2022-12-24T01:53:56.483Z,4.48
2022-12-24T01:56:30.129Z,4.46
2022-12-24T01:59:04.781Z,4.44
2022-12-24T02:01:37.670Z,4.46
2022-12-24T02:04:19.302Z,4.45
2022-12-24T02:06:51.045Z,4.45
2022-12-24T02:09:22.987Z,4.48
2022-12-24T02:11:55.692Z,4.49
2022-12-24T02:14:28.472Z,4.49
2022-12-24T02:17:11.817Z,4.49
2022-12-24T02:20:25.600Z,4.51
2022-12-24T02:23:21.571Z,4.54
2022-12-24T02:26:12.308Z,4.56
2022-12-24T02:29:07.255Z,4.55
2022-12-24T02:31:44.117Z,4.51
2022-12-24T02:34:21.317Z,4.48
2022-12-24T02:37:00.931Z,4.47
2022-12-24T02:39:39.825Z,4.48
2022-12-24T02:42:16.845Z,4.48
2022-12-24T02:44:55.782Z,4.50
2022-12-24T02:47:33.524Z,4.50
2022-12-24T02:50:08.907Z,4.54
2022-12-24T02:52:42.676Z,4.58
2022-12-24T02:55:18.778Z,4.62
2022-12-24T02:58:13.067Z,4.67
2022-12-24T03:01:17.703Z,4.70
2022-12-24T03:04:01.151Z,4.72
2022-12-24T03:06:45.008Z,4.76
2022-12-24T03:09:20.246Z,4.81
2022-12-24T03:12:00.856Z,4.85
2022-12-24T03:14:36.035Z,4.83
2022-12-24T03:17:09.731Z,4.78
2022-12-24T03:19:42.277Z,4.77
2022-12-24T03:22:14.644Z,4.72
2022-12-24T03:24:47.333Z,4.67
2022-12-24T03:27:19.770Z,4.66
2022-12-24T03:29:51.493Z,4.67
2022-12-24T03:32:29.568Z,4.71
2022-12-24T03:35:01.853Z,4.78
2022-12-24T03:37:33.588Z,4.86
2022-12-24T03:40:06.135Z,4.94
2022-12-24T03:42:38.429Z,5.00
2022-12-24T03:45:11.872Z,5.06
2022-12-24T03:47:43.640Z,5.14
2022-12-24T03:50:15.585Z,5.21
2022-12-24T03:52:47.349Z,5.27
2022-12-24T03:55:19.310Z,5.34
2022-12-24T03:57:51.048Z,5.41
2022-12-24T04:00:23.910Z,5.47
2022-12-24T04:02:55.929Z,5.52
2022-12-24T04:05:27.880Z,5.54
2022-12-24T04:07:59.695Z,5.57
2022-12-24T04:10:31.525Z,5.58
2022-12-24T04:13:03.382Z,5.57
2022-12-24T04:15:35.125Z,5.57
2022-12-24T04:18:07.247Z,5.58
2022-12-24T04:20:39.065Z,5.57
2022-12-24T04:23:10.840Z,5.55
2022-12-24T04:25:42.584Z,5.56
2022-12-24T04:28:16.289Z,5.57
2022-12-24T04:30:46.540Z,5.59
2022-12-24T04:33:18.459Z,5.61
2022-12-24T04:35:50.423Z,5.59
2022-12-24T04:38:22.255Z,5.59
2022-12-24T04:41:01.027Z,5.62
2022-12-24T04:43:35.076Z,5.57
2022-12-24T04:46:11.558Z,5.51
2022-12-24T04:48:44.001Z,5.47
2022-12-24T04:51:16.731Z,5.45
2022-12-24T04:53:48.510Z,5.43
2022-12-24T04:56:22.605Z,5.43
2022-12-24T04:58:54.994Z,5.46
2022-12-24T05:01:28.779Z,5.51
2022-12-24T05:04:01.782Z,5.56
2022-12-24T05:06:34.590Z,5.55
2022-12-24T05:09:06.731Z,5.53
2022-12-24T05:11:38.637Z,5.50
2022-12-24T05:14:10.377Z,5.56
2022-12-24T05:16:43.943Z,5.58
2022-12-24T05:19:14.218Z,5.57
2022-12-24T05:22:05.907Z,5.55
2022-12-24T05:24:55.253Z,5.52
2022-12-24T05:27:27.342Z,5.53
2022-12-24T05:29:59.277Z,5.52
2022-12-24T05:32:31.141Z,5.54
2022-12-24T05:35:03.041Z,5.58
2022-12-24T05:37:34.898Z,5.62
2022-12-24T05:40:08.658Z,5.66
2022-12-24T05:42:40.556Z,5.71
2022-12-24T05:45:13.093Z,5.76
2022-12-24T05:47:44.827Z,5.80
2022-12-24T05:50:16.664Z,5.80
2022-12-24T05:52:48.609Z,5.79
2022-12-24T05:55:20.694Z,5.78
2022-12-24T05:57:53.532Z,5.75
2022-12-24T06:00:25.761Z,5.75
2022-12-24T06:02:57.507Z,5.75
2022-12-24T06:05:29.948Z,5.76
2022-12-24T06:08:01.862Z,5.78
2022-12-24T06:10:33.750Z,5.81
2022-12-24T06:13:05.602Z,5.86
2022-12-24T06:15:38.762Z,5.92
2022-12-24T06:18:10.431Z,5.96
2022-12-24T06:20:42.293Z,6.01
2022-12-24T06:23:15.100Z,6.06
2022-12-24T06:25:47.069Z,6.11
2022-12-24T06:28:19.654Z,6.10
2022-12-24T06:30:55.796Z,6.07
2022-12-24T06:33:31.138Z,6.06
2022-12-24T06:36:03.538Z,6.05
2022-12-24T06:38:35.318Z,6.03
2022-12-24T06:41:10.295Z,6.04
2022-12-24T06:43:44.260Z,6.05
2022-12-24T06:46:17.615Z,6.07
2022-12-24T06:48:49.927Z,6.11
2022-12-24T06:51:21.844Z,6.16
2022-12-24T06:53:55.054Z,6.18
2022-12-24T06:56:27.111Z,6.20
2022-12-24T06:59:04.846Z,6.27
2022-12-24T07:01:37.236Z,6.34
2022-12-24T07:04:12.066Z,6.38
2022-12-24T07:06:48.479Z,6.41
2022-12-24T07:09:20.480Z,6.41
2022-12-24T07:11:52.228Z,6.39
2022-12-24T07:14:24.178Z,6.37
2022-12-24T07:16:59.311Z,6.40
2022-12-24T07:19:31.515Z,6.44
2022-12-24T07:22:03.364Z,6.48
2022-12-24T07:24:35.112Z,6.52
2022-12-24T07:27:07.229Z,6.56
2022-12-24T07:29:39.046Z,6.61
2022-12-24T07:32:11.210Z,6.68
2022-12-24T07:34:43.049Z,6.74
2022-12-24T07:37:14.977Z,6.79
2022-12-24T07:39:46.851Z,6.83
2022-12-24T07:42:18.671Z,6.86
2022-12-24T07:44:50.427Z,6.87
2022-12-24T07:47:22.187Z,6.87
2022-12-24T07:49:53.865Z,6.86
2022-12-24T07:52:25.692Z,6.87
2022-12-24T07:54:57.644Z,6.93
2022-12-24T07:57:29.488Z,7.01
2022-12-24T08:00:01.272Z,7.11
2022-12-24T08:02:33.278Z,7.19
2022-12-24T08:05:06.117Z,7.27
2022-12-24T08:07:38.046Z,7.32
2022-12-24T08:10:11.753Z,7.38
2022-12-24T08:12:41.931Z,7.40
2022-12-24T08:15:14.390Z,7.40
2022-12-24T08:17:46.142Z,7.37
2022-12-24T08:20:18.887Z,7.36
2022-12-24T08:22:50.655Z,7.39
2022-12-24T08:25:22.460Z,7.40
2022-12-24T08:27:54.203Z,7.43
2022-12-24T08:30:26.202Z,7.41
2022-12-24T08:32:58.058Z,7.35
2022-12-24T08:35:29.921Z,7.25
2022-12-24T08:38:02.104Z,7.20
2022-12-24T08:40:33.953Z,7.21
2022-12-24T08:43:05.833Z,7.19
2022-12-24T08:45:40.978Z,7.20
2022-12-24T08:48:13.365Z,7.25
2022-12-24T08:50:45.787Z,7.29
2022-12-24T08:53:17.523Z,7.35
2022-12-24T08:55:55.655Z,7.44
2022-12-24T08:58:28.188Z,7.54
2022-12-24T09:01:00.744Z,7.62
2022-12-24T09:03:32.596Z,7.69
2022-12-24T09:06:06.026Z,7.75
2022-12-24T09:08:37.783Z,7.78
2022-12-24T09:11:11.506Z,7.76
2022-12-24T09:13:41.760Z,7.69
2022-12-24T09:16:14.271Z,7.67
2022-12-24T09:18:46.946Z,7.62
2022-12-24T09:21:20.443Z,7.56
2022-12-24T09:23:52.334Z,7.54
2022-12-24T09:26:26.748Z,7.56
2022-12-24T09:29:01.407Z,7.60
2022-12-24T09:31:33.508Z,7.66
2022-12-24T09:34:05.291Z,7.74
2022-12-24T09:36:37.335Z,7.80
2022-12-24T09:39:09.089Z,7.83
2022-12-24T09:41:49.273Z,7.88
2022-12-24T09:44:40.951Z,7.92
2022-12-24T09:47:23.676Z,7.93
2022-12-24T09:49:58.339Z,7.96
2022-12-24T09:52:46.990Z,7.96
2022-12-24T09:55:27.471Z,8.03
2022-12-24T09:58:03.476Z,8.12
2022-12-24T10:00:39.744Z,8.16
2022-12-24T10:03:17.861Z,8.19
2022-12-24T10:05:57.379Z,8.20
2022-12-24T10:08:36.645Z,8.23
2022-12-24T10:11:16.985Z,8.27
2022-12-24T10:17:24.919Z,8.34
2022-12-24T10:20:09.315Z,8.48
2022-12-24T10:22:52.795Z,8.66
2022-12-24T10:25:29.182Z,8.81
2022-12-24T10:28:04.217Z,8.89
2022-12-24T10:30:36.945Z,8.89
2022-12-24T10:33:19.291Z,8.85
2022-12-24T10:35:55.975Z,8.78
2022-12-24T10:38:29.027Z,8.73
2022-12-24T10:41:02.506Z,8.70
2022-12-24T10:43:34.370Z,8.69
2022-12-24T10:46:10.205Z,8.69
2022-12-24T10:48:50.849Z,8.69
2022-12-24T10:51:32.708Z,8.64
2022-12-24T10:54:13.374Z,8.54
2022-12-24T10:56:47.942Z,8.46
2022-12-24T10:59:31.528Z,8.37
2022-12-24T11:02:04.414Z,8.33
2022-12-24T11:04:50.499Z,8.33
2022-12-24T11:07:24.607Z,8.36
2022-12-24T11:10:00.363Z,8.37
2022-12-24T11:12:35.085Z,8.36
2022-12-24T11:15:09.250Z,8.35
2022-12-24T11:17:41.367Z,8.37
2022-12-24T11:20:23.892Z,8.37
2022-12-24T11:22:56.286Z,8.37
2022-12-24T11:25:31.839Z,8.36
2022-12-24T11:28:14.650Z,8.33
2022-12-24T11:30:59.768Z,8.28
2022-12-24T11:33:32.705Z,8.27
2022-12-24T11:36:07.835Z,8.25
2022-12-24T11:38:40.047Z,8.26
2022-12-24T11:41:13.180Z,8.29
2022-12-24T11:43:47.897Z,8.30
2022-12-24T11:46:37.497Z,8.29
2022-12-24T11:49:22.576Z,8.31
2022-12-24T11:52:18.578Z,8.34
2022-12-24T11:55:03.668Z,8.33
2022-12-24T11:57:59.164Z,8.28
2022-12-24T12:00:31.518Z,8.22
2022-12-24T12:03:05.444Z,8.18
2022-12-24T12:05:39.669Z,8.16
2022-12-24T12:08:16.425Z,8.16
2022-12-24T12:10:50.666Z,8.17
2022-12-24T12:13:33.063Z,8.17
2022-12-24T12:16:19.634Z,8.19
2022-12-24T12:18:56.916Z,8.24
2022-12-24T12:21:36.740Z,8.27
2022-12-24T12:24:15.129Z,8.29
2022-12-24T12:26:49.028Z,8.25
2022-12-24T12:29:30.123Z,8.21
2022-12-24T12:32:08.926Z,8.17
2022-12-24T12:34:45.208Z,8.14
2022-12-24T12:37:21.771Z,8.15
2022-12-24T12:39:55.354Z,8.17
2022-12-24T12:42:33.583Z,8.15
2022-12-24T12:45:33.310Z,8.10
2022-12-24T12:48:17.726Z,8.09
2022-12-24T12:50:55.662Z,8.08
2022-12-24T12:53:56.518Z,8.14
2022-12-24T12:56:33.809Z,8.18
2022-12-24T12:59:11.822Z,8.18
2022-12-24T13:01:48.759Z,8.15
2022-12-24T13:04:44.427Z,8.10
2022-12-24T13:08:18.167Z,8.06
2022-12-24T13:11:07.668Z,8.05
2022-12-24T13:13:53.989Z,8.05
2022-12-24T13:16:47.445Z,8.06
2022-12-24T13:19:38.504Z,8.09
2022-12-24T13:22:18.634Z,8.12
2022-12-24T13:24:54.144Z,8.11
2022-12-24T13:27:30.413Z,8.11
2022-12-24T13:30:09.557Z,8.10
2022-12-24T13:32:54.632Z,8.09
2022-12-24T13:35:53.336Z,8.06
2022-12-24T13:38:45.292Z,8.05
2022-12-24T13:41:57.233Z,8.02
2022-12-24T13:44:35.016Z,7.98
2022-12-24T13:47:28.349Z,7.95
2022-12-24T13:50:23.849Z,7.94
2022-12-24T13:52:56.128Z,7.94
2022-12-24T13:55:28.087Z,7.94
2022-12-24T13:58:03.909Z,7.95
2022-12-24T14:00:43.700Z,7.95
2022-12-24T14:03:34.483Z,7.96
2022-12-24T14:06:10.870Z,7.99
2022-12-24T14:08:46.257Z,7.97
2022-12-24T14:11:20.257Z,7.98
2022-12-24T14:14:10.022Z,7.95
2022-12-24T14:16:49.929Z,7.92
2022-12-24T14:19:24.787Z,7.89
2022-12-24T14:22:05.118Z,7.89
2022-12-24T14:24:38.935Z,7.93
2022-12-24T14:27:14.977Z,7.93
2022-12-24T14:29:52.426Z,7.96
2022-12-24T14:32:24.275Z,7.95
2022-12-24T14:35:12.978Z,7.95
2022-12-24T14:37:49.479Z,7.97
2022-12-24T14:40:26.975Z,7.99
2022-12-24T14:43:07.348Z,7.98
2022-12-24T14:45:46.242Z,7.96
2022-12-24T14:48:26.815Z,7.91
2022-12-24T14:51:09.060Z,7.86
2022-12-24T14:54:05.736Z,7.82
2022-12-24T14:56:37.421Z,7.81
2022-12-24T14:59:19.719Z,7.81
2022-12-24T15:01:51.532Z,7.80
2022-12-24T15:04:23.215Z,7.82
2022-12-24T15:06:57.608Z,7.82
2022-12-24T15:09:33.964Z,7.83
2022-12-24T15:12:06.725Z,7.84
2022-12-24T15:14:44.656Z,7.86
2022-12-24T15:17:16.700Z,7.85
2022-12-24T15:19:52.955Z,7.83
2022-12-24T15:22:29.059Z,7.80
2022-12-24T15:25:00.840Z,7.79
2022-12-24T15:27:40.311Z,7.76
2022-12-24T15:30:18.855Z,7.73
2022-12-24T15:32:52.737Z,7.73
2022-12-24T15:35:53.256Z,7.74
2022-12-24T15:38:32.584Z,7.75
2022-12-24T15:41:07.750Z,7.77
2022-12-24T15:43:44.646Z,7.79
2022-12-24T15:46:24.290Z,7.82
2022-12-24T15:48:58.020Z,7.83
2022-12-24T15:51:30.075Z,7.85
2022-12-24T15:54:04.139Z,7.86
2022-12-24T15:56:38.871Z,7.80
2022-12-24T15:59:32.103Z,7.76
2022-12-24T16:02:37.336Z,7.73
2022-12-24T16:05:31.285Z,7.69
2022-12-24T16:08:24.142Z,7.67
2022-12-24T16:11:07.891Z,7.68
2022-12-24T16:13:42.544Z,7.68
2022-12-24T16:16:17.212Z,7.68
2022-12-24T16:18:56.037Z,7.68
2022-12-24T16:21:30.771Z,7.70
2022-12-24T16:24:08.858Z,7.70
2022-12-24T16:26:41.373Z,7.69
2022-12-24T16:29:15.212Z,7.68
2022-12-24T16:31:51.467Z,7.67
2022-12-24T16:34:26.490Z,7.62
2022-12-24T16:36:59.583Z,7.60
2022-12-24T16:39:33.920Z,7.56
2022-12-24T16:42:29.823Z,7.54
2022-12-24T16:45:01.491Z,7.51
2022-12-24T16:47:42.097Z,7.44
2022-12-24T16:50:18.140Z,7.39
2022-12-24T16:52:49.747Z,7.34
2022-12-24T16:55:21.429Z,7.30
2022-12-24T16:57:53.049Z,7.26
2022-12-24T17:00:25.850Z,7.22
2022-12-24T17:02:57.778Z,7.20
2022-12-24T17:05:30.017Z,7.15
2022-12-24T17:08:03.036Z,7.10
2022-12-24T17:10:34.971Z,7.03
2022-12-24T17:13:07.121Z,7.00
2022-12-24T17:15:42.351Z,6.99
2022-12-24T17:18:13.992Z,7.01
2022-12-24T17:20:45.619Z,7.03
2022-12-24T17:23:17.186Z,7.06
2022-12-24T17:25:50.221Z,7.08
2022-12-24T17:28:21.949Z,7.12
2022-12-24T17:30:53.876Z,7.15
2022-12-24T17:33:25.601Z,7.17
2022-12-24T17:35:58.053Z,7.16
2022-12-24T17:38:29.893Z,7.15
2022-12-24T17:41:05.593Z,7.11
2022-12-24T17:43:37.716Z,7.05
2022-12-24T17:46:11.420Z,7.01
2022-12-24T17:48:41.651Z,6.96
2022-12-24T17:51:15.201Z,6.95
2022-12-24T17:53:45.493Z,6.91
2022-12-24T17:56:17.818Z,6.91
2022-12-24T17:58:49.533Z,6.87
2022-12-24T18:01:25.186Z,6.83
2022-12-24T18:03:59.247Z,6.76
2022-12-24T18:06:31.533Z,6.68
2022-12-24T18:09:03.219Z,6.61
2022-12-24T18:11:37.150Z,6.56
2022-12-24T18:14:09.178Z,6.53
2022-12-24T18:16:42.353Z,6.49
2022-12-24T18:19:14.954Z,6.45
2022-12-24T18:21:46.812Z,6.42
2022-12-24T18:24:18.492Z,6.40
2022-12-24T18:26:50.077Z,6.45
2022-12-24T18:29:21.732Z,6.50
2022-12-24T18:31:53.492Z,6.54
2022-12-24T18:34:25.542Z,6.58
2022-12-24T18:36:57.132Z,6.62
2022-12-24T18:39:28.772Z,6.64
2022-12-24T18:42:00.530Z,6.65
2022-12-24T18:44:32.199Z,6.64
2022-12-24T18:47:03.898Z,6.62
2022-12-24T18:49:36.383Z,6.60
2022-12-24T18:52:09.307Z,6.61
2022-12-24T18:54:41.791Z,6.61
2022-12-24T18:57:13.486Z,6.64
2022-12-24T18:59:45.218Z,6.68
2022-12-24T19:02:17.119Z,6.72
2022-12-24T19:04:48.960Z,6.77
2022-12-24T19:07:20.611Z,6.82
2022-12-24T19:09:52.268Z,6.85
2022-12-24T19:12:23.869Z,6.89
2022-12-24T19:14:55.461Z,6.90
2022-12-24T19:17:27.071Z,6.90
2022-12-24T19:19:58.729Z,6.91
2022-12-24T19:22:30.585Z,6.91
2022-12-24T19:25:02.455Z,6.90
2022-12-24T19:27:34.259Z,6.89
2022-12-24T19:30:07.480Z,6.92
2022-12-24T19:32:40.420Z,6.96
2022-12-24T19:35:12.584Z,6.96
2022-12-24T19:37:44.288Z,6.96
2022-12-24T19:40:16.365Z,6.97
2022-12-24T19:42:50.221Z,6.93
2022-12-24T19:45:22.857Z,6.87
2022-12-24T19:47:54.679Z,6.82
2022-12-24T19:50:26.418Z,6.81
2022-12-24T19:53:01.172Z,6.81
2022-12-24T19:55:32.772Z,6.81
2022-12-24T19:58:04.355Z,6.81
2022-12-24T20:00:35.996Z,6.80
2022-12-24T20:03:07.914Z,6.78
2022-12-24T20:05:43.031Z,6.77
2022-12-24T20:08:14.621Z,6.71
2022-12-24T20:10:46.979Z,6.69
2022-12-24T20:13:18.652Z,6.71
2022-12-24T20:15:50.579Z,6.71
2022-12-24T20:18:22.422Z,6.69
2022-12-24T20:20:58.970Z,6.70
2022-12-24T20:23:30.789Z,6.63
2022-12-24T20:26:04.306Z,6.56
2022-12-24T20:28:37.846Z,6.48
2022-12-24T20:31:14.754Z,6.40
2022-12-24T20:33:47.191Z,6.33
2022-12-24T20:36:21.283Z,6.30
2022-12-24T20:38:53.581Z,6.30
2022-12-24T20:41:28.612Z,6.29
2022-12-24T20:44:01.718Z,6.31
2022-12-24T20:46:34.156Z,6.37
2022-12-24T20:49:06.325Z,6.42
2022-12-24T20:51:37.985Z,6.47
2022-12-24T20:54:11.235Z,6.48
2022-12-24T20:56:42.901Z,6.45
2022-12-24T20:59:14.563Z,6.38
2022-12-24T21:01:46.230Z,6.31
2022-12-24T21:04:18.017Z,6.29
2022-12-24T21:06:49.651Z,6.28
2022-12-24T21:09:21.283Z,6.29
2022-12-24T21:12:10.784Z,6.30
2022-12-24T21:14:42.367Z,6.31
2022-12-24T21:17:16.057Z,6.33
2022-12-24T21:19:48.072Z,6.34
2022-12-24T21:22:19.720Z,6.29
2022-12-24T21:24:51.410Z,6.24
2022-12-24T21:27:23.193Z,6.27
2022-12-24T21:29:54.844Z,6.24
2022-12-24T21:32:26.772Z,6.25
2022-12-24T21:34:58.384Z,6.20
2022-12-24T21:37:29.965Z,6.19
2022-12-24T21:40:01.690Z,6.19
2022-12-24T21:42:36.261Z,6.17
2022-12-24T21:45:10.473Z,6.16
2022-12-24T21:47:44.619Z,6.15
2022-12-24T21:50:34.233Z,6.15
2022-12-24T21:53:23.847Z,6.12
2022-12-24T21:55:56.595Z,6.16
2022-12-24T21:58:29.289Z,6.18
2022-12-24T22:01:06.674Z,6.23
2022-12-24T22:03:39.206Z,6.23
2022-12-24T22:06:34.253Z,6.17
2022-12-24T22:09:24.106Z,6.17
2022-12-24T22:11:55.733Z,6.15
2022-12-24T22:14:27.367Z,6.09
2022-12-24T22:16:59.043Z,6.10
2022-12-24T22:19:30.908Z,6.12
2022-12-24T22:22:02.474Z,6.17
2022-12-24T22:24:34.204Z,6.19
2022-12-24T22:27:06.099Z,6.17
2022-12-24T22:29:37.857Z,6.16
2022-12-24T22:32:09.895Z,6.16
2022-12-24T22:34:41.579Z,6.20
2022-12-24T22:37:13.467Z,6.22
2022-12-24T22:39:45.238Z,6.23
2022-12-24T22:42:16.862Z,6.25
2022-12-24T22:44:49.632Z,6.25
2022-12-24T22:47:21.432Z,6.25
2022-12-24T22:49:53.228Z,6.24
2022-12-24T22:52:24.864Z,6.22
2022-12-24T22:54:56.533Z,6.21
2022-12-24T22:57:28.550Z,6.21
2022-12-24T23:00:00.193Z,6.24
2022-12-24T23:02:32.261Z,6.25
2022-12-24T23:05:04.336Z,6.29
2022-12-24T23:07:35.968Z,6.33
2022-12-24T23:10:09.589Z,6.37
2022-12-24T23:12:56.994Z,6.40
2022-12-24T23:15:28.640Z,6.47
2022-12-24T23:18:00.351Z,6.48
2022-12-24T23:20:32.016Z,6.47
2022-12-24T23:23:03.717Z,6.47
2022-12-24T23:25:35.707Z,6.46
2022-12-24T23:28:07.625Z,6.45
2022-12-24T23:30:39.260Z,6.44
2022-12-24T23:33:11.022Z,6.42
2022-12-24T23:35:42.668Z,6.41
2022-12-24T23:38:15.354Z,6.37
2022-12-24T23:40:47.064Z,6.37
2022-12-24T23:43:18.711Z,6.35
2022-12-24T23:45:51.580Z,6.35
2022-12-24T23:48:24.462Z,6.34
2022-12-24T23:51:06.721Z,6.31
2022-12-24T23:53:38.892Z,6.24
2022-12-24T23:56:12.038Z,6.16
2022-12-24T23:58:45.383Z,6.01
